sensor_id;sensor_type;location;lat;lon;timestamp;temperature;humidity
51305;HTU21D;37392;50.964;6.952;2022-10-16T00:00:18;14.24;108.62
51305;HTU21D;37392;50.964;6.952;2022-10-16T00:02:44;14.25;108.59
51305;HTU21D;37392;50.964;6.952;2022-10-16T00:05:09;14.24;108.47
51305;HTU21D;37392;50.964;6.952;2022-10-16T00:07:35;14.23;108.50
51305;HTU21D;37392;50.964;6.952;2022-10-16T00:10:01;14.17;108.68
51305;HTU21D;37392;50.964;6.952;2022-10-16T00:12:26;14.13;108.72
51305;HTU21D;37392;50.964;6.952;2022-10-16T00:14:52;14.10;108.94
51305;HTU21D;37392;50.964;6.952;2022-10-16T00:17:18;14.00;109.13
51305;HTU21D;37392;50.964;6.952;2022-10-16T00:19:43;13.96;109.32
51305;HTU21D;37392;50.964;6.952;2022-10-16T00:22:09;13.94;109.48
51305;HTU21D;37392;50.964;6.952;2022-10-16T00:24:36;13.90;109.75
51305;HTU21D;37392;50.964;6.952;2022-10-16T00:27:04;13.90;110.07
51305;HTU21D;37392;50.964;6.952;2022-10-16T00:29:30;13.88;110.06
51305;HTU21D;37392;50.964;6.952;2022-10-16T00:31:55;13.83;109.95
51305;HTU21D;37392;50.964;6.952;2022-10-16T00:34:21;13.82;110.17
51305;HTU21D;37392;50.964;6.952;2022-10-16T00:36:47;13.77;110.36
51305;HTU21D;37392;50.964;6.952;2022-10-16T00:39:12;13.75;110.44
51305;HTU21D;37392;50.964;6.952;2022-10-16T00:41:38;13.67;110.51
51305;HTU21D;37392;50.964;6.952;2022-10-16T00:47:23;13.43;110.77
51305;HTU21D;37392;50.964;6.952;2022-10-16T00:49:55;13.32;111.43
51305;HTU21D;37392;50.964;6.952;2022-10-16T00:52:46;13.20;112.10
51305;HTU21D;37392;50.964;6.952;2022-10-16T00:55:13;13.16;112.39
51305;HTU21D;37392;50.964;6.952;2022-10-16T00:57:39;13.17;112.77
51305;HTU21D;37392;50.964;6.952;2022-10-16T01:00:08;13.18;112.89
51305;HTU21D;37392;50.964;6.952;2022-10-16T01:02:34;13.18;112.90
51305;HTU21D;37392;50.964;6.952;2022-10-16T01:05:00;13.19;112.95
51305;HTU21D;37392;50.964;6.952;2022-10-16T01:07:45;13.33;112.73
51305;HTU21D;37392;50.964;6.952;2022-10-16T01:10:41;13.39;112.30
51305;HTU21D;37392;50.964;6.952;2022-10-16T01:13:29;13.47;111.61
51305;HTU21D;37392;50.964;6.952;2022-10-16T01:19:36;13.43;111.36
51305;HTU21D;37392;50.964;6.952;2022-10-16T01:22:10;13.38;111.34
51305;HTU21D;37392;50.964;6.952;2022-10-16T01:24:46;13.35;111.34
51305;HTU21D;37392;50.964;6.952;2022-10-16T01:27:27;13.33;111.40
51305;HTU21D;37392;50.964;6.952;2022-10-16T01:30:10;13.30;111.67
51305;HTU21D;37392;50.964;6.952;2022-10-16T01:33:28;13.27;111.60
51305;HTU21D;37392;50.964;6.952;2022-10-16T01:35:36;13.29;111.79
51305;HTU21D;37392;50.964;6.952;2022-10-16T01:38:20;13.29;111.71
51305;HTU21D;37392;50.964;6.952;2022-10-16T01:40:54;13.33;111.32
51305;HTU21D;37392;50.964;6.952;2022-10-16T01:43:30;13.33;111.23
51305;HTU21D;37392;50.964;6.952;2022-10-16T01:46:01;13.30;111.14
51305;HTU21D;37392;50.964;6.952;2022-10-16T01:48:29;13.30;110.97
51305;HTU21D;37392;50.964;6.952;2022-10-16T01:51:06;13.29;111.10
51305;HTU21D;37392;50.964;6.952;2022-10-16T01:53:37;13.35;110.62
51305;HTU21D;37392;50.964;6.952;2022-10-16T01:56:07;13.33;110.57
51305;HTU21D;37392;50.964;6.952;2022-10-16T01:58:38;13.36;110.69
51305;HTU21D;37392;50.964;6.952;2022-10-16T02:01:09;13.40;110.52
51305;HTU21D;37392;50.964;6.952;2022-10-16T02:03:37;13.41;110.39
51305;HTU21D;37392;50.964;6.952;2022-10-16T02:06:06;13.53;110.11
51305;HTU21D;37392;50.964;6.952;2022-10-16T02:08:34;13.56;109.88
51305;HTU21D;37392;50.964;6.952;2022-10-16T02:11:00;13.61;109.74
51305;HTU21D;37392;50.964;6.952;2022-10-16T02:13:37;13.67;109.39
51305;HTU21D;37392;50.964;6.952;2022-10-16T02:16:21;13.70;108.81
51305;HTU21D;37392;50.964;6.952;2022-10-16T02:18:48;13.82;108.49
51305;HTU21D;37392;50.964;6.952;2022-10-16T02:21:25;13.89;107.78
51305;HTU21D;37392;50.964;6.952;2022-10-16T02:24:18;13.96;107.35
51305;HTU21D;37392;50.964;6.952;2022-10-16T02:27:02;14.01;106.92
51305;HTU21D;37392;50.964;6.952;2022-10-16T02:29:32;14.05;106.56
51305;HTU21D;37392;50.964;6.952;2022-10-16T02:32:01;14.07;106.14
51305;HTU21D;37392;50.964;6.952;2022-10-16T02:34:29;14.06;106.05
51305;HTU21D;37392;50.964;6.952;2022-10-16T02:36:56;14.07;106.04
51305;HTU21D;37392;50.964;6.952;2022-10-16T02:39:24;14.06;105.72
51305;HTU21D;37392;50.964;6.952;2022-10-16T02:41:49;14.08;105.74
51305;HTU21D;37392;50.964;6.952;2022-10-16T02:44:15;14.08;105.69
51305;HTU21D;37392;50.964;6.952;2022-10-16T02:46:40;14.10;105.57
51305;HTU21D;37392;50.964;6.952;2022-10-16T02:49:06;14.09;105.57
51305;HTU21D;37392;50.964;6.952;2022-10-16T02:51:31;14.05;105.38
51305;HTU21D;37392;50.964;6.952;2022-10-16T02:53:57;14.09;105.24
51305;HTU21D;37392;50.964;6.952;2022-10-16T02:56:22;14.08;104.98
51305;HTU21D;37392;50.964;6.952;2022-10-16T02:58:49;14.10;104.98
51305;HTU21D;37392;50.964;6.952;2022-10-16T03:01:14;14.09;104.97
51305;HTU21D;37392;50.964;6.952;2022-10-16T03:03:42;14.13;104.76
51305;HTU21D;37392;50.964;6.952;2022-10-16T03:06:08;14.14;104.29
51305;HTU21D;37392;50.964;6.952;2022-10-16T03:08:34;14.12;104.14
51305;HTU21D;37392;50.964;6.952;2022-10-16T03:10:59;14.12;104.08
51305;HTU21D;37392;50.964;6.952;2022-10-16T03:13:25;14.09;103.96
51305;HTU21D;37392;50.964;6.952;2022-10-16T03:15:50;14.04;104.02
51305;HTU21D;37392;50.964;6.952;2022-10-16T03:18:16;13.97;104.01
51305;HTU21D;37392;50.964;6.952;2022-10-16T03:20:45;13.90;104.24
51305;HTU21D;37392;50.964;6.952;2022-10-16T03:23:10;13.82;104.44
51305;HTU21D;37392;50.964;6.952;2022-10-16T03:25:39;13.74;104.73
51305;HTU21D;37392;50.964;6.952;2022-10-16T03:28:05;13.69;104.98
51305;HTU21D;37392;50.964;6.952;2022-10-16T03:30:31;13.64;105.09
51305;HTU21D;37392;50.964;6.952;2022-10-16T03:32:56;13.58;105.30
51305;HTU21D;37392;50.964;6.952;2022-10-16T03:35:23;13.56;105.78
51305;HTU21D;37392;50.964;6.952;2022-10-16T03:37:49;13.58;105.64
51305;HTU21D;37392;50.964;6.952;2022-10-16T03:40:16;13.53;105.76
51305;HTU21D;37392;50.964;6.952;2022-10-16T03:42:43;13.56;105.81
51305;HTU21D;37392;50.964;6.952;2022-10-16T03:45:09;13.68;105.37
51305;HTU21D;37392;50.964;6.952;2022-10-16T03:47:36;13.74;105.10
51305;HTU21D;37392;50.964;6.952;2022-10-16T03:50:02;13.74;105.03
51305;HTU21D;37392;50.964;6.952;2022-10-16T03:52:28;13.76;105.07
51305;HTU21D;37392;50.964;6.952;2022-10-16T03:54:54;13.78;104.80
51305;HTU21D;37392;50.964;6.952;2022-10-16T03:57:20;13.80;104.80
51305;HTU21D;37392;50.964;6.952;2022-10-16T03:59:45;13.84;104.74
51305;HTU21D;37392;50.964;6.952;2022-10-16T04:02:11;13.82;104.79
51305;HTU21D;37392;50.964;6.952;2022-10-16T04:04:40;13.83;104.85
51305;HTU21D;37392;50.964;6.952;2022-10-16T04:07:05;13.86;104.69
51305;HTU21D;37392;50.964;6.952;2022-10-16T04:09:31;13.89;104.55
51305;HTU21D;37392;50.964;6.952;2022-10-16T04:11:57;13.95;104.26
51305;HTU21D;37392;50.964;6.952;2022-10-16T04:14:22;13.94;104.29
51305;HTU21D;37392;50.964;6.952;2022-10-16T04:16:48;13.97;104.20
51305;HTU21D;37392;50.964;6.952;2022-10-16T04:19:13;14.01;103.89
51305;HTU21D;37392;50.964;6.952;2022-10-16T04:21:39;13.97;104.02
51305;HTU21D;37392;50.964;6.952;2022-10-16T04:24:04;13.99;104.05
51305;HTU21D;37392;50.964;6.952;2022-10-16T04:26:30;13.99;103.91
51305;HTU21D;37392;50.964;6.952;2022-10-16T04:28:55;13.94;104.02
51305;HTU21D;37392;50.964;6.952;2022-10-16T04:31:21;13.86;104.32
51305;HTU21D;37392;50.964;6.952;2022-10-16T04:33:47;13.82;104.75
51305;HTU21D;37392;50.964;6.952;2022-10-16T04:36:13;13.77;105.08
51305;HTU21D;37392;50.964;6.952;2022-10-16T04:38:39;13.77;105.34
51305;HTU21D;37392;50.964;6.952;2022-10-16T04:41:06;13.77;105.41
51305;HTU21D;37392;50.964;6.952;2022-10-16T04:43:33;13.78;105.45
51305;HTU21D;37392;50.964;6.952;2022-10-16T04:45:59;13.77;105.43
51305;HTU21D;37392;50.964;6.952;2022-10-16T04:48:25;13.71;105.53
51305;HTU21D;37392;50.964;6.952;2022-10-16T04:50:50;13.74;105.82
51305;HTU21D;37392;50.964;6.952;2022-10-16T04:53:16;13.73;105.80
51305;HTU21D;37392;50.964;6.952;2022-10-16T04:55:42;13.77;105.84
51305;HTU21D;37392;50.964;6.952;2022-10-16T04:58:08;13.74;105.88
51305;HTU21D;37392;50.964;6.952;2022-10-16T05:00:34;13.73;106.11
51305;HTU21D;37392;50.964;6.952;2022-10-16T05:03:00;13.69;106.30
51305;HTU21D;37392;50.964;6.952;2022-10-16T05:05:27;13.74;106.30
51305;HTU21D;37392;50.964;6.952;2022-10-16T05:07:53;13.71;106.22
51305;HTU21D;37392;50.964;6.952;2022-10-16T05:10:19;13.66;106.47
51305;HTU21D;37392;50.964;6.952;2022-10-16T05:12:45;13.69;106.89
51305;HTU21D;37392;50.964;6.952;2022-10-16T05:15:11;13.76;107.01
51305;HTU21D;37392;50.964;6.952;2022-10-16T05:17:36;13.81;106.82
51305;HTU21D;37392;50.964;6.952;2022-10-16T05:20:02;13.88;106.72
51305;HTU21D;37392;50.964;6.952;2022-10-16T05:22:28;13.94;106.49
51305;HTU21D;37392;50.964;6.952;2022-10-16T05:24:54;14.01;106.39
51305;HTU21D;37392;50.964;6.952;2022-10-16T05:27:20;14.06;106.20
51305;HTU21D;37392;50.964;6.952;2022-10-16T05:29:46;14.00;106.15
51305;HTU21D;37392;50.964;6.952;2022-10-16T05:32:17;13.93;106.35
51305;HTU21D;37392;50.964;6.952;2022-10-16T05:34:44;13.90;106.85
51305;HTU21D;37392;50.964;6.952;2022-10-16T05:37:10;13.77;107.27
51305;HTU21D;37392;50.964;6.952;2022-10-16T05:39:37;13.74;107.78
51305;HTU21D;37392;50.964;6.952;2022-10-16T05:42:05;13.75;108.20
51305;HTU21D;37392;50.964;6.952;2022-10-16T05:44:31;13.77;108.11
51305;HTU21D;37392;50.964;6.952;2022-10-16T05:46:57;13.77;107.86
51305;HTU21D;37392;50.964;6.952;2022-10-16T05:49:22;13.69;108.05
51305;HTU21D;37392;50.964;6.952;2022-10-16T05:51:48;13.58;108.31
51305;HTU21D;37392;50.964;6.952;2022-10-16T05:54:14;13.43;108.85
51305;HTU21D;37392;50.964;6.952;2022-10-16T05:56:39;13.30;109.43
51305;HTU21D;37392;50.964;6.952;2022-10-16T05:59:05;13.33;110.00
51305;HTU21D;37392;50.964;6.952;2022-10-16T06:01:31;13.14;110.28
51305;HTU21D;37392;50.964;6.952;2022-10-16T06:03:57;13.17;111.07
51305;HTU21D;37392;50.964;6.952;2022-10-16T06:06:26;13.12;111.15
51305;HTU21D;37392;50.964;6.952;2022-10-16T06:08:54;13.15;111.42
51305;HTU21D;37392;50.964;6.952;2022-10-16T06:11:26;13.12;111.50
51305;HTU21D;37392;50.964;6.952;2022-10-16T06:13:55;13.11;111.50
51305;HTU21D;37392;50.964;6.952;2022-10-16T06:16:23;13.07;111.84
51305;HTU21D;37392;50.964;6.952;2022-10-16T06:18:53;13.08;112.29
51305;HTU21D;37392;50.964;6.952;2022-10-16T06:21:22;13.12;112.63
51305;HTU21D;37392;50.964;6.952;2022-10-16T06:23:53;13.22;112.57
51305;HTU21D;37392;50.964;6.952;2022-10-16T06:26:25;13.33;112.58
51305;HTU21D;37392;50.964;6.952;2022-10-16T06:28:54;13.44;112.23
51305;HTU21D;37392;50.964;6.952;2022-10-16T06:31:23;13.46;112.01
51305;HTU21D;37392;50.964;6.952;2022-10-16T06:33:53;13.58;111.90
51305;HTU21D;37392;50.964;6.952;2022-10-16T06:36:20;13.67;111.77
51305;HTU21D;37392;50.964;6.952;2022-10-16T06:38:46;13.85;111.44
51305;HTU21D;37392;50.964;6.952;2022-10-16T06:41:14;13.98;110.81
51305;HTU21D;37392;50.964;6.952;2022-10-16T06:43:41;14.14;110.34
51305;HTU21D;37392;50.964;6.952;2022-10-16T06:46:09;14.37;109.43
51305;HTU21D;37392;50.964;6.952;2022-10-16T06:48:36;14.53;108.53
51305;HTU21D;37392;50.964;6.952;2022-10-16T06:51:04;14.71;107.75
51305;HTU21D;37392;50.964;6.952;2022-10-16T06:53:34;14.85;107.13
51305;HTU21D;37392;50.964;6.952;2022-10-16T06:56:11;15.06;106.28
51305;HTU21D;37392;50.964;6.952;2022-10-16T06:58:41;15.21;104.83
51305;HTU21D;37392;50.964;6.952;2022-10-16T07:01:08;15.29;103.95
51305;HTU21D;37392;50.964;6.952;2022-10-16T07:03:36;15.41;103.46
51305;HTU21D;37392;50.964;6.952;2022-10-16T07:06:04;15.49;102.77
51305;HTU21D;37392;50.964;6.952;2022-10-16T07:08:33;15.56;102.30
51305;HTU21D;37392;50.964;6.952;2022-10-16T07:11:00;15.66;101.89
51305;HTU21D;37392;50.964;6.952;2022-10-16T07:13:27;15.76;101.82
51305;HTU21D;37392;50.964;6.952;2022-10-16T07:15:52;15.90;101.25
51305;HTU21D;37392;50.964;6.952;2022-10-16T07:18:18;16.11;100.65
51305;HTU21D;37392;50.964;6.952;2022-10-16T07:20:44;16.71;100.04
51305;HTU21D;37392;50.964;6.952;2022-10-16T07:23:09;17.35;95.68
51305;HTU21D;37392;50.964;6.952;2022-10-16T07:25:35;17.53;94.02
51305;HTU21D;37392;50.964;6.952;2022-10-16T07:28:00;17.51;93.72
51305;HTU21D;37392;50.964;6.952;2022-10-16T07:30:26;17.38;93.82
51305;HTU21D;37392;50.964;6.952;2022-10-16T07:32:51;17.32;93.76
51305;HTU21D;37392;50.964;6.952;2022-10-16T07:35:17;17.23;94.50
51305;HTU21D;37392;50.964;6.952;2022-10-16T07:37:46;17.25;94.55
51305;HTU21D;37392;50.964;6.952;2022-10-16T07:40:12;17.23;94.50
51305;HTU21D;37392;50.964;6.952;2022-10-16T07:42:37;17.44;93.94
51305;HTU21D;37392;50.964;6.952;2022-10-16T07:45:03;17.85;93.34
51305;HTU21D;37392;50.964;6.952;2022-10-16T07:47:29;18.00;91.35
51305;HTU21D;37392;50.964;6.952;2022-10-16T07:49:55;17.87;90.81
51305;HTU21D;37392;50.964;6.952;2022-10-16T07:52:21;18.00;90.55
51305;HTU21D;37392;50.964;6.952;2022-10-16T07:54:46;18.48;89.14
51305;HTU21D;37392;50.964;6.952;2022-10-16T07:57:12;18.87;87.53
51305;HTU21D;37392;50.964;6.952;2022-10-16T07:59:44;19.38;85.62
51305;HTU21D;37392;50.964;6.952;2022-10-16T08:02:10;19.55;83.96
51305;HTU21D;37392;50.964;6.952;2022-10-16T08:04:36;19.57;83.13
51305;HTU21D;37392;50.964;6.952;2022-10-16T08:07:02;19.63;82.67
51305;HTU21D;37392;50.964;6.952;2022-10-16T08:09:27;19.80;82.26
51305;HTU21D;37392;50.964;6.952;2022-10-16T08:11:53;20.30;81.35
51305;HTU21D;37392;50.964;6.952;2022-10-16T08:14:18;20.93;78.76
51305;HTU21D;37392;50.964;6.952;2022-10-16T08:16:44;21.48;77.30
51305;HTU21D;37392;50.964;6.952;2022-10-16T08:19:09;22.08;74.95
51305;HTU21D;37392;50.964;6.952;2022-10-16T08:21:35;22.39;73.42
51305;HTU21D;37392;50.964;6.952;2022-10-16T08:24:00;23.17;71.13
51305;HTU21D;37392;50.964;6.952;2022-10-16T08:26:26;23.65;68.49
51305;HTU21D;37392;50.964;6.952;2022-10-16T08:28:52;24.24;67.51
51305;HTU21D;37392;50.964;6.952;2022-10-16T08:31:18;24.55;65.58
51305;HTU21D;37392;50.964;6.952;2022-10-16T08:33:48;24.88;65.53
51305;HTU21D;37392;50.964;6.952;2022-10-16T08:36:14;25.17;63.88
51305;HTU21D;37392;50.964;6.952;2022-10-16T08:38:41;25.28;63.38
51305;HTU21D;37392;50.964;6.952;2022-10-16T08:47:17;25.59;61.99
51305;HTU21D;37392;50.964;6.952;2022-10-16T08:49:59;25.80;60.78
51305;HTU21D;37392;50.964;6.952;2022-10-16T08:52:30;25.95;60.02
51305;HTU21D;37392;50.964;6.952;2022-10-16T08:54:58;25.86;60.10
51305;HTU21D;37392;50.964;6.952;2022-10-16T08:57:25;25.88;60.07
51305;HTU21D;37392;50.964;6.952;2022-10-16T08:59:52;26.20;59.36
51305;HTU21D;37392;50.964;6.952;2022-10-16T09:02:37;26.76;57.77
51305;HTU21D;37392;50.964;6.952;2022-10-16T09:10:57;27.04;57.15
51305;HTU21D;37392;50.964;6.952;2022-10-16T09:19:13;27.78;54.23
51305;HTU21D;37392;50.964;6.952;2022-10-16T09:21:44;28.28;52.85
51305;HTU21D;37392;50.964;6.952;2022-10-16T09:24:16;28.42;52.56
51305;HTU21D;37392;50.964;6.952;2022-10-16T09:26:44;28.79;51.89
51305;HTU21D;37392;50.964;6.952;2022-10-16T09:29:12;29.07;51.55
51305;HTU21D;37392;50.964;6.952;2022-10-16T09:31:41;29.15;50.98
51305;HTU21D;37392;50.964;6.952;2022-10-16T09:36:48;29.37;50.46
51305;HTU21D;37392;50.964;6.952;2022-10-16T09:39:14;29.39;48.28
51305;HTU21D;37392;50.964;6.952;2022-10-16T09:41:42;28.63;49.56
51305;HTU21D;37392;50.964;6.952;2022-10-16T09:44:19;27.82;50.12
51305;HTU21D;37392;50.964;6.952;2022-10-16T09:46:48;27.57;50.99
51305;HTU21D;37392;50.964;6.952;2022-10-16T09:49:25;27.85;51.01
51305;HTU21D;37392;50.964;6.952;2022-10-16T09:52:09;28.32;49.75
51305;HTU21D;37392;50.964;6.952;2022-10-16T09:54:37;28.75;49.20
51305;HTU21D;37392;50.964;6.952;2022-10-16T09:57:07;29.11;48.41
51305;HTU21D;37392;50.964;6.952;2022-10-16T09:59:33;28.95;47.91
51305;HTU21D;37392;50.964;6.952;2022-10-16T10:02:04;28.91;48.68
51305;HTU21D;37392;50.964;6.952;2022-10-16T10:04:49;29.49;47.81
51305;HTU21D;37392;50.964;6.952;2022-10-16T10:07:39;29.85;46.96
51305;HTU21D;37392;50.964;6.952;2022-10-16T10:10:25;30.07;46.58
51305;HTU21D;37392;50.964;6.952;2022-10-16T10:12:53;29.72;46.56
51305;HTU21D;37392;50.964;6.952;2022-10-16T10:15:21;29.08;47.65
51305;HTU21D;37392;50.964;6.952;2022-10-16T10:23:21;30.07;46.26
51305;HTU21D;37392;50.964;6.952;2022-10-16T10:29:13;31.00;43.97
51305;HTU21D;37392;50.964;6.952;2022-10-16T10:34:53;29.47;46.37
51305;HTU21D;37392;50.964;6.952;2022-10-16T10:37:47;28.48;47.94
51305;HTU21D;37392;50.964;6.952;2022-10-16T10:40:31;27.54;50.26
51305;HTU21D;37392;50.964;6.952;2022-10-16T10:43:18;26.89;51.84
51305;HTU21D;37392;50.964;6.952;2022-10-16T10:46:05;26.40;52.99
51305;HTU21D;37392;50.964;6.952;2022-10-16T10:54:26;25.42;55.15
51305;HTU21D;37392;50.964;6.952;2022-10-16T10:57:02;25.37;55.83
51305;HTU21D;37392;50.964;6.952;2022-10-16T11:02:54;24.91;57.28
51305;HTU21D;37392;50.964;6.952;2022-10-16T11:05:46;24.68;57.22
51305;HTU21D;37392;50.964;6.952;2022-10-16T11:08:24;24.63;57.66
51305;HTU21D;37392;50.964;6.952;2022-10-16T11:10:57;24.41;58.05
51305;HTU21D;37392;50.964;6.952;2022-10-16T11:13:35;24.30;58.25
51305;HTU21D;37392;50.964;6.952;2022-10-16T11:16:27;24.30;58.36
51305;HTU21D;37392;50.964;6.952;2022-10-16T11:22:11;24.08;58.06
51305;HTU21D;37392;50.964;6.952;2022-10-16T11:25:02;24.05;58.62
51305;HTU21D;37392;50.964;6.952;2022-10-16T11:30:20;24.11;58.13
51305;HTU21D;37392;50.964;6.952;2022-10-16T11:35:43;24.13;57.62
51305;HTU21D;37392;50.964;6.952;2022-10-16T11:41:48;24.13;57.55
51305;HTU21D;37392;50.964;6.952;2022-10-16T11:47:40;24.00;58.01
51305;HTU21D;37392;50.964;6.952;2022-10-16T11:55:35;23.90;58.21
51305;HTU21D;37392;50.964;6.952;2022-10-16T11:58:07;23.83;58.51
51305;HTU21D;37392;50.964;6.952;2022-10-16T12:04:06;23.62;58.01
51305;HTU21D;37392;50.964;6.952;2022-10-16T12:06:40;23.62;58.24
51305;HTU21D;37392;50.964;6.952;2022-10-16T12:09:21;23.75;58.01
51305;HTU21D;37392;50.964;6.952;2022-10-16T12:11:51;23.69;58.54
51305;HTU21D;37392;50.964;6.952;2022-10-16T12:14:33;23.60;59.10
51305;HTU21D;37392;50.964;6.952;2022-10-16T12:20:22;23.30;58.98
51305;HTU21D;37392;50.964;6.952;2022-10-16T12:23:03;23.10;59.77
51305;HTU21D;37392;50.964;6.952;2022-10-16T12:25:31;23.17;60.03
51305;HTU21D;37392;50.964;6.952;2022-10-16T12:28:22;23.37;59.77
51305;HTU21D;37392;50.964;6.952;2022-10-16T12:30:56;23.59;59.81
51305;HTU21D;37392;50.964;6.952;2022-10-16T12:33:27;23.74;58.43
51305;HTU21D;37392;50.964;6.952;2022-10-16T12:35:54;23.94;57.37
51305;HTU21D;37392;50.964;6.952;2022-10-16T12:38:37;24.08;57.43
51305;HTU21D;37392;50.964;6.952;2022-10-16T12:41:28;23.86;56.91
51305;HTU21D;37392;50.964;6.952;2022-10-16T12:43:55;23.49;57.33
51305;HTU21D;37392;50.964;6.952;2022-10-16T12:46:36;23.51;57.89
51305;HTU21D;37392;50.964;6.952;2022-10-16T12:49:21;23.46;57.35
51305;HTU21D;37392;50.964;6.952;2022-10-16T12:51:53;23.24;57.71
51305;HTU21D;37392;50.964;6.952;2022-10-16T13:00:04;22.39;60.36
51305;HTU21D;37392;50.964;6.952;2022-10-16T13:03:00;22.39;60.36
51305;HTU21D;37392;50.964;6.952;2022-10-16T13:09:02;22.22;61.47
51305;HTU21D;37392;50.964;6.952;2022-10-16T13:17:26;22.41;60.86
51305;HTU21D;37392;50.964;6.952;2022-10-16T13:22:39;22.24;61.45
51305;HTU21D;37392;50.964;6.952;2022-10-16T13:28:22;21.92;62.77
51305;HTU21D;37392;50.964;6.952;2022-10-16T13:30:57;21.76;63.28
51305;HTU21D;37392;50.964;6.952;2022-10-16T13:33:35;21.65;63.54
51305;HTU21D;37392;50.964;6.952;2022-10-16T13:36:04;21.78;63.56
51305;HTU21D;37392;50.964;6.952;2022-10-16T13:38:32;21.85;63.44
51305;HTU21D;37392;50.964;6.952;2022-10-16T13:41:12;21.92;63.49
51305;HTU21D;37392;50.964;6.952;2022-10-16T13:43:43;21.95;63.05
51305;HTU21D;37392;50.964;6.952;2022-10-16T13:46:22;21.95;63.23
51305;HTU21D;37392;50.964;6.952;2022-10-16T13:49:02;21.95;63.09
51305;HTU21D;37392;50.964;6.952;2022-10-16T13:51:31;22.06;63.36
51305;HTU21D;37392;50.964;6.952;2022-10-16T13:53:58;22.17;63.13
51305;HTU21D;37392;50.964;6.952;2022-10-16T13:56:29;22.29;63.09
51305;HTU21D;37392;50.964;6.952;2022-10-16T13:59:03;22.35;62.68
51305;HTU21D;37392;50.964;6.952;2022-10-16T14:01:33;22.28;62.38
51305;HTU21D;37392;50.964;6.952;2022-10-16T14:04:02;22.05;62.88
51305;HTU21D;37392;50.964;6.952;2022-10-16T14:06:30;21.89;63.60
51305;HTU21D;37392;50.964;6.952;2022-10-16T14:09:00;21.92;64.01
51305;HTU21D;37392;50.964;6.952;2022-10-16T14:11:27;21.91;64.19
51305;HTU21D;37392;50.964;6.952;2022-10-16T14:13:53;21.80;64.32
51305;HTU21D;37392;50.964;6.952;2022-10-16T14:16:21;21.76;64.61
51305;HTU21D;37392;50.964;6.952;2022-10-16T14:18:58;21.74;65.13
51305;HTU21D;37392;50.964;6.952;2022-10-16T14:21:26;21.81;64.88
51305;HTU21D;37392;50.964;6.952;2022-10-16T14:23:53;21.72;65.05
51305;HTU21D;37392;50.964;6.952;2022-10-16T14:26:26;21.72;65.38
51305;HTU21D;37392;50.964;6.952;2022-10-16T14:29:12;21.66;65.64
51305;HTU21D;37392;50.964;6.952;2022-10-16T14:31:42;21.52;66.17
51305;HTU21D;37392;50.964;6.952;2022-10-16T14:34:32;21.47;66.40
51305;HTU21D;37392;50.964;6.952;2022-10-16T14:37:29;21.39;66.93
51305;HTU21D;37392;50.964;6.952;2022-10-16T14:39:56;21.33;67.30
51305;HTU21D;37392;50.964;6.952;2022-10-16T14:42:24;21.24;67.49
51305;HTU21D;37392;50.964;6.952;2022-10-16T14:44:51;21.23;67.61
51305;HTU21D;37392;50.964;6.952;2022-10-16T14:47:25;21.20;67.89
51305;HTU21D;37392;50.964;6.952;2022-10-16T14:49:54;21.18;68.29
51305;HTU21D;37392;50.964;6.952;2022-10-16T14:52:21;21.21;68.55
51305;HTU21D;37392;50.964;6.952;2022-10-16T14:54:50;21.33;68.60
51305;HTU21D;37392;50.964;6.952;2022-10-16T14:57:23;21.46;68.42
51305;HTU21D;37392;50.964;6.952;2022-10-16T14:59:50;21.52;68.45
51305;HTU21D;37392;50.964;6.952;2022-10-16T15:02:28;21.46;68.81
51305;HTU21D;37392;50.964;6.952;2022-10-16T15:05:17;21.31;69.55
51305;HTU21D;37392;50.964;6.952;2022-10-16T15:07:52;21.23;70.07
51305;HTU21D;37392;50.964;6.952;2022-10-16T15:10:22;21.11;70.60
51305;HTU21D;37392;50.964;6.952;2022-10-16T15:12:49;21.01;71.12
51305;HTU21D;37392;50.964;6.952;2022-10-16T15:17:58;20.99;71.50
51305;HTU21D;37392;50.964;6.952;2022-10-16T15:20:32;20.94;71.82
51305;HTU21D;37392;50.964;6.952;2022-10-16T15:23:13;20.91;71.98
51305;HTU21D;37392;50.964;6.952;2022-10-16T15:25:54;20.86;72.29
51305;HTU21D;37392;50.964;6.952;2022-10-16T15:28:22;20.81;72.54
51305;HTU21D;37392;50.964;6.952;2022-10-16T15:30:50;20.72;73.03
51305;HTU21D;37392;50.964;6.952;2022-10-16T15:33:19;20.71;73.47
51305;HTU21D;37392;50.964;6.952;2022-10-16T15:35:49;20.68;73.73
51305;HTU21D;37392;50.964;6.952;2022-10-16T15:38:18;20.63;74.04
51305;HTU21D;37392;50.964;6.952;2022-10-16T15:40:45;20.57;74.42
51305;HTU21D;37392;50.964;6.952;2022-10-16T15:43:12;20.55;74.67
51305;HTU21D;37392;50.964;6.952;2022-10-16T15:45:40;20.48;75.11
51305;HTU21D;37392;50.964;6.952;2022-10-16T15:48:12;20.45;75.41
51305;HTU21D;37392;50.964;6.952;2022-10-16T15:50:43;20.40;75.70
51305;HTU21D;37392;50.964;6.952;2022-10-16T15:53:09;20.32;76.11
51305;HTU21D;37392;50.964;6.952;2022-10-16T15:55:45;20.27;76.47
51305;HTU21D;37392;50.964;6.952;2022-10-16T15:58:18;20.17;76.80
51305;HTU21D;37392;50.964;6.952;2022-10-16T16:00:44;20.12;77.16
51305;HTU21D;37392;50.964;6.952;2022-10-16T16:03:09;20.06;77.50
51305;HTU21D;37392;50.964;6.952;2022-10-16T16:05:38;19.99;77.93
51305;HTU21D;37392;50.964;6.952;2022-10-16T16:08:04;19.92;78.34
51305;HTU21D;37392;50.964;6.952;2022-10-16T16:10:30;19.89;78.53
51305;HTU21D;37392;50.964;6.952;2022-10-16T16:12:55;19.82;78.97
51305;HTU21D;37392;50.964;6.952;2022-10-16T16:15:22;19.76;79.13
51305;HTU21D;37392;50.964;6.952;2022-10-16T16:17:49;19.71;79.33
51305;HTU21D;37392;50.964;6.952;2022-10-16T16:20:15;19.67;79.65
51305;HTU21D;37392;50.964;6.952;2022-10-16T16:22:42;19.62;79.98
51305;HTU21D;37392;50.964;6.952;2022-10-16T16:25:08;19.59;80.29
51305;HTU21D;37392;50.964;6.952;2022-10-16T16:27:44;19.52;80.81
51305;HTU21D;37392;50.964;6.952;2022-10-16T16:30:18;19.46;81.20
51305;HTU21D;37392;50.964;6.952;2022-10-16T16:32:45;19.40;81.58
51305;HTU21D;37392;50.964;6.952;2022-10-16T16:35:11;19.33;82.07
51305;HTU21D;37392;50.964;6.952;2022-10-16T16:37:37;19.27;82.59
51305;HTU21D;37392;50.964;6.952;2022-10-16T16:40:02;19.20;83.38
51305;HTU21D;37392;50.964;6.952;2022-10-16T16:42:28;19.13;83.99
51305;HTU21D;37392;50.964;6.952;2022-10-16T16:44:54;19.08;84.45
51305;HTU21D;37392;50.964;6.952;2022-10-16T16:47:20;19.02;84.87
51305;HTU21D;37392;50.964;6.952;2022-10-16T16:49:46;18.98;85.45
51305;HTU21D;37392;50.964;6.952;2022-10-16T16:52:12;18.88;85.83
51305;HTU21D;37392;50.964;6.952;2022-10-16T16:54:38;18.84;86.30
51305;HTU21D;37392;50.964;6.952;2022-10-16T16:57:04;18.81;86.74
51305;HTU21D;37392;50.964;6.952;2022-10-16T16:59:30;18.78;87.22
51305;HTU21D;37392;50.964;6.952;2022-10-16T17:01:58;18.77;87.70
51305;HTU21D;37392;50.964;6.952;2022-10-16T17:04:25;18.71;88.12
51305;HTU21D;37392;50.964;6.952;2022-10-16T17:06:53;18.72;88.47